createdAt,value
2023-01-23T00:00:28.136Z,-5.30
2023-01-23T00:02:55.890Z,-5.20
2023-01-23T00:05:23.765Z,-5.40
2023-01-23T00:07:51.521Z,-5.60
2023-01-23T00:10:21.276Z,-5.60
2023-01-23T00:12:49.458Z,-5.60
2023-01-23T00:15:17.346Z,-5.40
2023-01-23T00:17:45.510Z,-5.60
2023-01-23T00:20:14.168Z,-5.50
2023-01-23T00:22:41.980Z,-5.40
2023-01-23T00:25:10.037Z,-5.30
2023-01-23T00:27:39.179Z,-5.00
2023-01-23T00:30:08.051Z,-4.80
2023-01-23T00:32:35.992Z,-4.90
2023-01-23T00:35:04.077Z,-4.90
2023-01-23T00:37:32.086Z,-4.80
2023-01-23T00:39:59.873Z,-5.00
2023-01-23T00:42:27.699Z,-5.00
2023-01-23T00:44:56.839Z,-5.10
2023-01-23T00:47:24.627Z,-5.20
2023-01-23T00:49:53.914Z,-5.10
2023-01-23T00:52:21.708Z,-5.40
2023-01-23T00:54:49.502Z,-5.20
2023-01-23T00:57:17.290Z,-5.30
2023-01-23T00:59:45.069Z,-5.40
2023-01-23T01:02:14.206Z,-5.40
2023-01-23T01:04:41.980Z,-5.30
2023-01-23T01:07:09.755Z,-5.40
2023-01-23T01:09:37.528Z,-5.40
2023-01-23T01:12:06.505Z,-5.40
2023-01-23T01:14:34.278Z,-5.50
2023-01-23T01:17:02.259Z,-5.60
2023-01-23T01:19:31.376Z,-5.70
2023-01-23T01:21:59.173Z,-5.80
2023-01-23T01:24:27.008Z,-5.80
2023-01-23T01:26:54.795Z,-5.80
2023-01-23T01:29:22.590Z,-5.50
2023-01-23T01:31:50.483Z,-5.50
2023-01-23T01:34:18.270Z,-5.70
2023-01-23T01:36:47.405Z,-5.80
2023-01-23T01:39:15.181Z,-5.80
2023-01-23T01:41:42.980Z,-5.80
2023-01-23T01:44:13.825Z,-5.70
2023-01-23T01:46:41.645Z,-5.50
2023-01-23T01:49:11.312Z,-5.60
2023-01-23T01:51:41.693Z,-5.70
2023-01-23T01:54:15.468Z,-5.80
2023-01-23T01:56:45.733Z,-5.80
2023-01-23T01:59:13.530Z,-5.70
2023-01-23T02:01:44.288Z,-5.70
2023-01-23T02:04:12.324Z,-5.40
2023-01-23T02:06:40.168Z,-4.90
2023-01-23T02:09:13.752Z,-4.70
2023-01-23T02:11:41.557Z,-5.10
2023-01-23T02:14:10.291Z,-5.30
2023-01-23T02:16:41.042Z,-5.20
2023-01-23T02:19:13.292Z,-5.20
2023-01-23T02:21:41.111Z,-5.00
2023-01-23T02:24:15.511Z,-5.20
2023-01-23T02:26:45.593Z,-5.10
2023-01-23T02:29:13.823Z,-5.10
2023-01-23T02:31:42.929Z,-5.00
2023-01-23T02:34:11.577Z,-5.00
2023-01-23T02:36:39.480Z,-5.10
2023-01-23T02:39:08.575Z,-5.10
2023-01-23T02:41:37.476Z,-5.00
2023-01-23T02:44:11.295Z,-5.10
2023-01-23T02:46:39.566Z,-5.20
2023-01-23T02:49:07.582Z,-5.10
2023-01-23T02:51:35.448Z,-5.10
2023-01-23T02:54:03.679Z,-4.90
2023-01-23T02:56:34.047Z,-4.70
2023-01-23T02:59:19.828Z,-4.90
2023-01-23T03:01:49.340Z,-5.10
2023-01-23T03:04:17.284Z,-4.80
2023-01-23T03:06:45.176Z,-4.90
2023-01-23T03:09:15.912Z,-5.00
2023-01-23T03:11:44.549Z,-4.90
2023-01-23T03:14:14.237Z,-4.90
2023-01-23T03:16:42.976Z,-4.60
2023-01-23T03:19:12.564Z,-4.60
2023-01-23T03:21:41.294Z,-4.60
2023-01-23T03:24:09.877Z,-4.50
2023-01-23T03:26:39.862Z,-4.70
2023-01-23T03:29:25.063Z,-4.70
2023-01-23T03:31:53.073Z,-4.80
2023-01-23T03:34:22.955Z,-4.90
2023-01-23T03:36:50.964Z,-4.90
2023-01-23T03:39:36.504Z,-4.80
2023-01-23T03:42:04.629Z,-4.80
2023-01-23T03:44:32.813Z,-4.80
2023-01-23T03:47:00.681Z,-4.80
2023-01-23T03:49:30.132Z,-4.80
2023-01-23T03:51:58.157Z,-4.80
2023-01-23T03:54:26.071Z,-4.70
2023-01-23T03:56:54.549Z,-4.60
2023-01-23T03:59:22.547Z,-4.60
2023-01-23T04:01:50.406Z,-4.60
2023-01-23T04:04:18.392Z,-4.20
2023-01-23T04:06:47.618Z,-4.50
2023-01-23T04:09:15.535Z,-4.50
2023-01-23T04:11:43.537Z,-2.90
2023-01-23T04:14:11.544Z,-3.60
2023-01-23T04:16:39.452Z,-4.10
2023-01-23T04:19:07.339Z,-4.20
2023-01-23T04:21:35.203Z,-4.20
2023-01-23T04:24:04.657Z,-4.20
2023-01-23T04:26:34.381Z,-4.50
2023-01-23T04:29:02.336Z,-4.40
2023-01-23T04:31:30.385Z,-4.30
2023-01-23T04:33:58.336Z,-4.40
2023-01-23T04:36:26.154Z,-4.50
2023-01-23T04:38:54.184Z,-4.40
2023-01-23T04:41:24.660Z,-4.50
2023-01-23T04:43:52.678Z,-4.50
2023-01-23T04:46:20.599Z,-4.60
2023-01-23T04:48:48.974Z,-4.60
2023-01-23T04:51:16.975Z,-4.70
2023-01-23T04:53:45.011Z,-4.60
2023-01-23T04:56:12.884Z,-4.50
2023-01-23T04:58:42.227Z,-4.60
2023-01-23T05:01:11.078Z,-4.50
2023-01-23T05:03:39.075Z,-4.40
2023-01-23T05:06:07.619Z,-4.40
2023-01-23T05:08:35.702Z,-4.50
2023-01-23T05:11:04.023Z,-4.60
2023-01-23T05:13:32.114Z,-4.60
2023-01-23T05:16:01.456Z,-4.20
2023-01-23T05:18:30.487Z,-4.30
2023-01-23T05:20:58.355Z,-4.30
2023-01-23T05:23:26.345Z,-4.30
2023-01-23T05:25:54.250Z,-4.40
2023-01-23T05:28:22.123Z,-4.30
2023-01-23T05:30:50.133Z,-4.30
2023-01-23T05:33:19.523Z,-4.50
2023-01-23T05:35:47.397Z,-4.50
2023-01-23T05:38:15.415Z,-4.50
2023-01-23T05:40:43.351Z,-4.40
2023-01-23T05:43:13.045Z,-4.30
2023-01-23T05:45:40.991Z,-4.50
2023-01-23T05:48:09.145Z,-4.50
2023-01-23T05:50:38.431Z,-4.50
2023-01-23T05:53:06.454Z,-4.50
2023-01-23T05:55:47.956Z,-4.50
2023-01-23T05:58:16.168Z,-4.30
2023-01-23T06:00:44.128Z,-4.50
2023-01-23T06:03:11.981Z,-4.50
2023-01-23T06:05:42.674Z,-4.50
2023-01-23T06:08:10.534Z,-4.30
2023-01-23T06:10:38.763Z,-4.40
2023-01-23T06:13:06.635Z,-4.30
2023-01-23T06:15:34.716Z,-4.40
2023-01-23T06:18:02.716Z,-4.30
2023-01-23T06:20:30.615Z,-4.20
2023-01-23T06:22:59.868Z,-4.30
2023-01-23T06:25:27.972Z,-4.30
2023-01-23T06:27:55.851Z,-4.40
2023-01-23T06:30:23.704Z,-4.30
2023-01-23T06:32:51.555Z,-4.20
2023-01-23T06:35:19.753Z,-4.40
2023-01-23T06:38:16.504Z,-4.40
2023-01-23T06:40:45.182Z,-4.10
2023-01-23T06:43:13.056Z,-4.00
2023-01-23T06:45:44.630Z,-4.10
2023-01-23T06:48:12.479Z,-4.30
2023-01-23T06:50:40.408Z,-4.30
2023-01-23T06:53:08.462Z,-4.40
2023-01-23T06:55:38.119Z,-4.40
2023-01-23T06:58:06.107Z,-4.10
2023-01-23T07:00:34.426Z,-4.30
2023-01-23T07:03:03.722Z,-4.30
2023-01-23T07:05:31.830Z,-4.40
2023-01-23T07:07:59.963Z,-4.30
2023-01-23T07:10:28.222Z,-4.30
2023-01-23T07:12:57.510Z,-4.20
2023-01-23T07:15:25.733Z,-4.10
2023-01-23T07:17:53.771Z,-4.10
2023-01-23T07:20:22.045Z,-3.90
2023-01-23T07:22:51.526Z,-4.10
2023-01-23T07:25:19.512Z,-4.20
2023-01-23T07:27:47.477Z,-4.20
2023-01-23T07:30:17.275Z,-4.10
2023-01-23T07:32:45.281Z,-4.10
2023-01-23T07:35:13.343Z,-4.00
2023-01-23T07:37:42.215Z,-4.00
2023-01-23T07:40:11.746Z,-4.00
2023-01-23T07:42:39.950Z,-4.00
2023-01-23T07:45:09.553Z,-4.00
2023-01-23T07:47:39.926Z,-3.90
2023-01-23T07:50:08.818Z,-4.00
2023-01-23T07:52:36.971Z,-3.70
2023-01-23T07:55:05.937Z,-3.60
2023-01-23T07:57:34.083Z,-3.40
2023-01-23T08:00:02.048Z,-3.70
2023-01-23T08:02:30.037Z,-3.70
2023-01-23T08:04:59.453Z,-3.80
2023-01-23T08:07:27.494Z,-3.80
2023-01-23T08:09:55.610Z,-3.90
2023-01-23T08:12:23.784Z,-3.90
2023-01-23T08:14:51.820Z,-3.90
2023-01-23T08:17:19.961Z,-3.80
2023-01-23T08:19:48.221Z,-3.90
2023-01-23T08:22:17.728Z,-3.80
2023-01-23T08:24:46.058Z,-3.70
2023-01-23T08:27:14.097Z,-3.60
2023-01-23T08:29:42.292Z,-3.50
2023-01-23T08:32:11.167Z,-3.50
2023-01-23T08:34:39.579Z,-3.40
2023-01-23T08:37:07.691Z,-3.60
2023-01-23T08:39:37.141Z,-3.60
2023-01-23T08:42:05.528Z,-3.60
2023-01-23T08:44:34.487Z,-3.70
2023-01-23T08:47:03.247Z,-3.60
2023-01-23T08:49:31.342Z,-3.50
2023-01-23T08:52:00.223Z,-3.40
2023-01-23T08:54:28.292Z,-3.50
2023-01-23T08:56:57.623Z,-3.50
2023-01-23T08:59:29.850Z,-3.50
2023-01-23T09:02:00.807Z,-3.50
2023-01-23T09:04:28.806Z,-3.40
2023-01-23T09:06:57.050Z,-3.50
2023-01-23T09:09:24.987Z,-3.50
2023-01-23T09:11:53.051Z,-3.50
2023-01-23T09:14:22.769Z,-3.50
2023-01-23T09:16:50.896Z,-3.50
2023-01-23T09:19:18.986Z,-3.40
2023-01-23T09:21:46.969Z,-2.50
2023-01-23T09:24:14.958Z,-1.80
2023-01-23T09:26:45.483Z,-0.80
2023-01-23T09:29:13.437Z,-1.00
2023-01-23T09:31:42.862Z,-2.20
2023-01-23T09:34:10.870Z,-2.90
2023-01-23T09:36:43.537Z,-3.10
2023-01-23T09:39:11.925Z,-2.80
2023-01-23T09:41:40.263Z,-2.90
2023-01-23T09:44:11.323Z,-2.90
2023-01-23T09:46:40.564Z,-3.10
2023-01-23T09:49:12.429Z,-3.10
2023-01-23T09:51:50.840Z,-3.00
2023-01-23T09:54:23.617Z,-3.00
2023-01-23T09:56:51.560Z,-3.10
2023-01-23T09:59:25.870Z,-2.70
2023-01-23T10:01:53.815Z,-2.80
2023-01-23T10:04:23.484Z,-2.80
2023-01-23T10:07:22.920Z,-3.00
2023-01-23T10:10:01.896Z,-2.80
2023-01-23T10:12:40.254Z,-2.80
2023-01-23T10:15:20.900Z,-2.70
2023-01-23T10:17:52.583Z,-2.60
2023-01-23T10:20:30.440Z,-2.50
2023-01-23T10:23:04.242Z,-2.60
2023-01-23T10:25:35.259Z,-2.70
2023-01-23T10:28:15.815Z,-2.70
2023-01-23T10:30:43.777Z,-2.70
2023-01-23T10:33:14.168Z,-2.60
2023-01-23T10:35:47.725Z,-2.50
2023-01-23T10:38:24.109Z,-2.50
2023-01-23T10:41:09.902Z,-2.60
2023-01-23T10:43:38.528Z,-2.50
2023-01-23T10:46:11.290Z,-2.60
2023-01-23T10:48:44.583Z,-2.40
2023-01-23T10:51:34.772Z,-2.30
2023-01-23T10:54:25.950Z,-2.40
2023-01-23T10:56:59.252Z,-2.40
2023-01-23T10:59:36.039Z,-2.30
2023-01-23T11:02:20.372Z,-2.40
2023-01-23T11:04:53.454Z,-2.30
2023-01-23T11:07:23.497Z,-2.30
2023-01-23T11:09:56.276Z,-2.40
2023-01-23T11:12:25.238Z,-2.40
2023-01-23T11:14:53.536Z,-2.30
2023-01-23T11:17:23.913Z,-2.30
2023-01-23T11:19:54.304Z,-2.40
2023-01-23T11:22:28.578Z,-2.20
2023-01-23T11:24:56.575Z,-2.20
2023-01-23T11:27:26.625Z,-2.10
2023-01-23T11:30:00.186Z,-2.10
2023-01-23T11:32:28.390Z,-2.20
2023-01-23T11:35:12.946Z,-2.10
2023-01-23T11:37:45.301Z,-2.10
2023-01-23T11:40:15.080Z,-2.00
2023-01-23T11:42:43.792Z,-2.10
2023-01-23T11:45:14.995Z,-2.10
2023-01-23T11:47:56.093Z,-2.10
2023-01-23T11:50:49.975Z,-2.00
2023-01-23T11:53:36.740Z,-2.00
2023-01-23T11:56:35.457Z,-1.90
2023-01-23T11:59:21.039Z,-2.00
2023-01-23T12:02:03.157Z,-2.10
2023-01-23T12:04:41.555Z,-2.00
2023-01-23T12:07:22.858Z,-1.90
2023-01-23T12:09:59.735Z,-1.80
2023-01-23T12:12:39.650Z,-1.90
2023-01-23T12:15:10.413Z,-1.90
2023-01-23T12:17:42.841Z,-1.90
2023-01-23T12:20:39.138Z,-2.00
2023-01-23T12:23:17.847Z,-2.00
2023-01-23T12:25:49.856Z,-2.00
2023-01-23T12:28:25.986Z,-2.00
2023-01-23T12:31:12.099Z,-1.90
2023-01-23T12:34:00.113Z,-1.90
2023-01-23T12:37:07.173Z,-1.80
2023-01-23T12:39:48.441Z,-1.80
2023-01-23T12:42:20.985Z,-1.90
2023-01-23T12:44:52.485Z,-2.00
2023-01-23T12:47:22.240Z,-1.90
2023-01-23T12:49:52.108Z,-1.80
2023-01-23T12:52:23.596Z,-1.60
2023-01-23T12:54:54.368Z,-1.70
2023-01-23T12:57:46.230Z,-1.50
2023-01-23T13:00:32.815Z,-1.50
2023-01-23T13:03:10.041Z,-1.50
2023-01-23T13:05:41.936Z,-1.60
2023-01-23T13:08:12.233Z,-1.80
2023-01-23T13:11:13.640Z,-1.70
2023-01-23T13:13:42.838Z,-1.70
2023-01-23T13:16:13.175Z,-1.60
2023-01-23T13:18:59.374Z,-1.60
2023-01-23T13:21:44.809Z,-1.60
2023-01-23T13:24:46.372Z,-1.60
2023-01-23T13:27:37.176Z,-1.70
2023-01-23T13:30:36.894Z,-1.60
2023-01-23T13:33:55.321Z,-1.50
2023-01-23T13:36:37.084Z,-1.70
2023-01-23T13:39:29.406Z,-1.80
2023-01-23T13:42:35.005Z,-1.80
2023-01-23T13:45:32.450Z,-1.60
2023-01-23T14:20:42.217Z,-1.00
2023-01-23T14:23:22.409Z,-1.00
2023-01-23T14:25:50.369Z,-1.00
2023-01-23T14:28:18.879Z,-1.00
2023-01-23T14:30:56.941Z,-1.10
2023-01-23T14:33:26.518Z,-1.10
2023-01-23T14:35:55.345Z,-1.10
2023-01-23T14:38:28.642Z,-1.00
2023-01-23T14:40:58.924Z,-0.90
2023-01-23T14:43:28.686Z,-1.00
2023-01-23T14:46:01.523Z,-1.00
2023-01-23T14:48:31.448Z,-1.00
2023-01-23T14:54:53.795Z,-1.00
2023-01-23T14:57:22.934Z,-0.90
2023-01-23T14:59:50.933Z,-0.90
2023-01-23T15:02:27.588Z,-1.00
2023-01-23T15:05:10.369Z,-0.90
2023-01-23T15:07:43.855Z,-1.00
2023-01-23T15:10:31.517Z,-1.10
2023-01-23T15:13:03.720Z,-1.00
2023-01-23T15:15:32.078Z,-1.10
2023-01-23T15:18:01.273Z,-1.00
2023-01-23T15:20:38.328Z,-1.00
2023-01-23T15:23:49.974Z,-1.00
2023-01-23T15:26:42.937Z,-1.10
2023-01-23T15:29:18.929Z,-1.00
2023-01-23T15:31:51.185Z,-1.10
2023-01-23T15:34:21.898Z,-1.00
2023-01-23T15:36:52.927Z,-1.10
2023-01-23T15:39:22.042Z,-1.10
2023-01-23T15:41:51.330Z,-1.00
2023-01-23T15:44:20.127Z,-1.10
2023-01-23T15:46:48.053Z,-1.10
2023-01-23T15:49:24.963Z,-1.10
2023-01-23T15:51:57.783Z,-1.10
2023-01-23T15:54:27.868Z,-1.00
2023-01-23T15:57:06.616Z,-1.00
2023-01-23T15:59:35.439Z,-1.00
2023-01-23T16:02:03.383Z,-0.90
2023-01-23T16:04:31.193Z,-1.00
2023-01-23T16:07:00.616Z,-1.00
2023-01-23T16:09:30.604Z,-1.00
2023-01-23T16:11:58.424Z,-1.00
2023-01-23T16:14:26.228Z,-1.10
2023-01-23T16:16:55.333Z,-1.10
2023-01-23T16:19:24.516Z,-1.10
2023-01-23T16:22:04.017Z,-1.00
2023-01-23T16:24:35.787Z,-1.00
2023-01-23T16:27:03.666Z,-1.10
2023-01-23T16:29:32.168Z,-1.10
2023-01-23T16:32:00.891Z,-1.10
2023-01-23T16:34:28.967Z,-1.10
2023-01-23T16:36:58.084Z,-1.10
2023-01-23T16:39:27.677Z,-1.10
2023-01-23T16:41:56.815Z,-1.10
2023-01-23T16:44:24.831Z,-1.00
2023-01-23T16:46:53.003Z,-1.10
2023-01-23T16:49:21.247Z,-0.90
2023-01-23T16:51:52.264Z,-1.20
2023-01-23T16:54:20.570Z,-1.10
2023-01-23T16:56:50.897Z,-1.10
2023-01-23T16:59:20.671Z,-1.10
2023-01-23T17:01:49.548Z,-1.00
2023-01-23T17:04:19.219Z,-1.00
2023-01-23T17:06:47.008Z,-1.00
2023-01-23T17:09:15.226Z,-1.00
2023-01-23T17:11:44.510Z,-1.10
2023-01-23T17:14:15.719Z,-1.20
2023-01-23T17:16:44.848Z,-1.10
2023-01-23T17:19:18.206Z,-1.10
2023-01-23T17:21:46.046Z,-1.10
2023-01-23T17:24:16.095Z,-1.00
2023-01-23T17:26:43.962Z,-1.10
2023-01-23T17:29:12.173Z,-1.10
2023-01-23T17:31:40.160Z,-1.00
2023-01-23T17:34:11.781Z,-0.90
2023-01-23T17:36:39.589Z,-0.80
2023-01-23T17:39:08.713Z,-0.90
2023-01-23T17:41:36.529Z,-1.00
2023-01-23T17:44:04.528Z,-1.00
2023-01-23T17:46:33.542Z,-0.90
2023-01-23T17:49:01.372Z,-1.00
2023-01-23T17:51:32.481Z,-0.60
2023-01-23T17:54:00.403Z,-0.70
2023-01-23T17:56:28.256Z,-0.70
2023-01-23T17:58:56.227Z,-0.70
2023-01-23T18:01:25.387Z,-0.70
2023-01-23T18:03:53.780Z,-0.70
2023-01-23T18:06:21.802Z,-0.70
2023-01-23T18:08:51.045Z,-0.70
2023-01-23T18:11:20.768Z,-0.50
2023-01-23T18:13:55.697Z,-0.60
2023-01-23T18:16:26.511Z,-0.70
2023-01-23T18:18:58.475Z,-0.70
2023-01-23T18:21:26.960Z,-0.80
2023-01-23T18:23:57.255Z,-0.80
2023-01-23T18:26:34.161Z,-0.80
2023-01-23T18:29:06.053Z,-0.70
2023-01-23T18:31:43.401Z,-0.80
2023-01-23T18:34:16.552Z,-0.80
2023-01-23T18:36:51.693Z,-0.80
2023-01-23T18:39:34.080Z,-0.80
2023-01-23T18:42:12.612Z,-0.80
2023-01-23T18:44:41.382Z,-0.80
2023-01-23T18:47:12.145Z,-0.80
2023-01-23T18:49:41.062Z,-0.80
2023-01-23T18:52:10.331Z,-0.70
2023-01-23T18:54:43.290Z,-0.70
2023-01-23T18:57:21.573Z,-0.80
2023-01-23T18:59:53.245Z,-0.80
2023-01-23T19:02:27.111Z,-0.80
2023-01-23T19:04:58.651Z,-0.70
2023-01-23T19:07:37.424Z,-0.70
2023-01-23T19:10:07.749Z,-0.60
2023-01-23T19:12:37.249Z,-0.50
2023-01-23T19:15:16.297Z,-0.60
2023-01-23T19:17:45.737Z,-0.60
2023-01-23T19:20:23.074Z,-0.70
2023-01-23T19:22:56.375Z,-0.60
2023-01-23T19:25:26.339Z,-0.60
2023-01-23T19:27:55.946Z,-0.60
2023-01-23T19:30:25.483Z,-0.60
2023-01-23T19:32:53.417Z,-0.60
2023-01-23T19:35:21.284Z,-0.50
2023-01-23T19:37:49.243Z,-0.60
2023-01-23T19:40:17.892Z,-0.50
2023-01-23T19:42:58.808Z,-0.50
2023-01-23T19:45:33.809Z,-0.50
2023-01-23T19:48:01.662Z,-0.50
2023-01-23T19:50:29.449Z,-0.50
2023-01-23T19:53:00.080Z,-0.50
2023-01-23T19:55:29.151Z,-0.50
2023-01-23T19:57:58.287Z,-0.50
2023-01-23T20:00:26.426Z,-0.50
2023-01-23T20:02:54.452Z,-0.50
2023-01-23T20:05:22.660Z,-0.60
2023-01-23T20:07:50.824Z,-0.60
2023-01-23T20:10:18.972Z,-0.60
2023-01-23T20:12:47.670Z,-0.60
2023-01-23T20:15:16.912Z,-0.50
2023-01-23T20:17:44.692Z,-0.50
2023-01-23T20:20:13.065Z,-0.50
2023-01-23T20:22:41.174Z,-0.50
2023-01-23T20:25:10.065Z,-0.60
2023-01-23T20:27:37.877Z,-0.60
2023-01-23T20:30:06.709Z,-0.60
2023-01-23T20:32:36.010Z,-0.60
2023-01-23T20:35:03.916Z,-0.60
2023-01-23T20:37:31.867Z,-0.50
2023-01-23T20:39:59.858Z,-0.50
2023-01-23T20:42:27.709Z,-0.50
2023-01-23T20:44:55.498Z,-0.50
2023-01-23T20:47:23.537Z,-0.50
2023-01-23T20:49:52.687Z,-0.50
2023-01-23T20:52:37.985Z,-0.50
2023-01-23T20:55:06.359Z,-0.50
2023-01-23T20:57:48.172Z,-0.50
2023-01-23T21:00:17.070Z,-0.50
2023-01-23T21:02:45.040Z,-0.40
2023-01-23T21:05:14.432Z,-0.40
2023-01-23T21:07:42.353Z,-0.40
2023-01-23T21:10:11.102Z,-0.40
2023-01-23T21:12:38.937Z,-0.40
2023-01-23T21:15:07.689Z,-0.40
2023-01-23T21:17:35.636Z,-0.40
2023-01-23T21:20:03.641Z,-0.40
2023-01-23T21:22:33.056Z,-0.30
2023-01-23T21:25:00.854Z,-0.30
2023-01-23T21:27:28.841Z,-0.30
2023-01-23T21:29:56.777Z,-0.40
2023-01-23T21:32:24.635Z,-0.40
2023-01-23T21:34:52.675Z,-0.30
2023-01-23T21:37:22.060Z,-0.30
2023-01-23T21:39:51.321Z,-0.40
2023-01-23T21:42:19.279Z,-0.30
2023-01-23T21:44:48.125Z,-0.30
2023-01-23T21:47:15.929Z,-0.40
2023-01-23T21:49:43.723Z,-0.40
2023-01-23T21:52:12.017Z,-0.40
2023-01-23T21:54:43.440Z,-0.30
2023-01-23T21:57:12.815Z,-0.30
2023-01-23T21:59:41.165Z,-0.30
2023-01-23T22:02:08.870Z,-0.40
2023-01-23T22:04:37.184Z,-0.40
2023-01-23T22:07:05.404Z,-0.30
2023-01-23T22:09:33.517Z,-0.30
2023-01-23T22:12:01.556Z,-0.30
2023-01-23T22:14:31.738Z,-0.30
2023-01-23T22:16:59.703Z,-0.30
2023-01-23T22:19:27.862Z,-0.40
2023-01-23T22:21:57.284Z,-0.30
2023-01-23T22:24:25.278Z,-0.30
2023-01-23T22:26:59.381Z,-0.30
2023-01-23T22:29:27.568Z,-0.20
2023-01-23T22:31:57.049Z,-0.30
2023-01-23T22:34:25.164Z,-0.30
2023-01-23T22:36:53.151Z,-0.30
2023-01-23T22:39:21.408Z,-0.30
2023-01-23T22:41:50.046Z,-0.40
2023-01-23T22:44:18.158Z,-0.30
2023-01-23T22:46:46.363Z,-0.20
2023-01-23T22:50:10.722Z,-0.10
2023-01-23T22:52:41.661Z,-0.20
2023-01-23T22:55:29.564Z,-0.10
2023-01-23T22:58:03.520Z,-0.20
2023-01-23T23:00:33.643Z,-0.20
2023-01-23T23:03:01.489Z,-0.20
2023-01-23T23:05:29.584Z,-0.20
2023-01-23T23:07:59.164Z,-0.20
2023-01-23T23:10:31.659Z,-0.20
2023-01-23T23:12:59.592Z,-0.20
2023-01-23T23:15:27.415Z,-0.20
2023-01-23T23:17:55.468Z,-0.20
2023-01-23T23:20:23.890Z,-0.20
2023-01-23T23:22:52.226Z,-0.10
2023-01-23T23:25:22.000Z,-0.20
2023-01-23T23:27:50.256Z,-0.20
2023-01-23T23:30:18.783Z,-0.10
2023-01-23T23:32:47.030Z,-0.10
2023-01-23T23:35:15.168Z,0.00
2023-01-23T23:37:43.054Z,0.00
2023-01-23T23:40:12.401Z,-0.10
2023-01-23T23:42:41.662Z,-0.10
2023-01-23T23:45:10.720Z,0.00
2023-01-23T23:47:38.848Z,0.00
2023-01-23T23:50:07.935Z,0.00
2023-01-23T23:52:36.854Z,0.00
2023-01-23T23:55:05.387Z,-0.10
2023-01-23T23:57:33.533Z,-0.10
